Main page
METAR-TAF:

METAR-TAF

Airports :

Wellsville Municipal Airport

Wellsville, New York, United States

latitude: 42-06-27N, longitude: 077-59-04W, elevation: 2122 ft

Current weather observation

The report was made 22 minutes ago, at 19:56 UTC
Wind 8 mph from the North/Northwest with gusts up to 18 mph, varying between West/Northwest and North
Temperature 43°F
Humidity 45%
Pressure 29.85 in. Hg
Visibility: 10 miles
Clear sky

METAR: KELZ 011956Z AUTO 33007G16KT 300V360 10SM CLR 06/M05 A2985 RMK AO2 SLP122 T00611050

Time: 16:18 (20:18 UTC)


TAF: missing

Weather observations and forecasts of more than 4000 airports (METAR and TAF reports).

The available stations are represented by yellow and red dots on the map.

Hover mouse over dot to see the name of the station.

Then click to see weather observations and forecasts.

To change the map : click on the green buttons with a black cross to zoom in, on the green button with a dash to zoom out, or on the green arrows for adjacent maps.


METAR-TAF: